Langley AFB, Virginia
Current Conditions -  °F | °C
As of 7:58 AM on Thursday 30 Oct 2014 (Local Time) from KLFI Reporting Station
Haze Haze  
Wind Chill: 52°   Ceiling: Unl
Heat Index: 52°   Visibility: 4mi
Dew Point: 52°   Wind: 6mph
Humidity: 100%   Direction: 330°NNW
Pressure: 30.01"   Gusts: NA
Location:  37.0868°N, 76.3631°W
Report Text: KLFI 301158Z AUTO 33005KT 4SM BR CLR 11/11 A3001 RMK AO2 SLP169 60003 70031 T01100110 10138 20103 52008 $
Loading
Personal Weather Stations






























Interactive Weather Map
Tropical Storm Tracking
New forecast layout! Learn more

10-Day Weather Forecast

Advertisements
Track Severe Weather on mobile